Terminal Aerodrome Forecast
Issued by NWS

Home | Current Version | Previous Version | Text Only | Print | Product List | Glossary On
Versions: 1 2 3 4 5 6 7 8 9 10 11 12 13 14 15 16 17 18 19 20 21 22 23 24 25 26 27 28 29 30 31 32 33 34
955
FTUS45 KGJT 210539
TAFTEX
TAF
KTEX 210539Z 2106/2206 VRB05KT P6SM -SN SCT010 BKN020 OVC040
      TEMPO 2106/2108 26010G18KT 1SM -SN SCT009 OVC017
     FM210800 27012G27KT 1 1/2SM -SHSN SCT010 BKN015
     FM211100 25009KT 2SM -SHSN SCT010 BKN025
     FM211600 27013G25KT 3SM -SN BKN010 OVC030=

USA.gov is the U.S. government's official web portal to all federal, state and local government web resources and services.